sensor_id;sensor_type;location;lat;lon;timestamp;P1;durP1;ratioP1;P2;durP2;ratioP2
48789;SDS011;41718;51.980;5.734;2023-11-19T00:01:33;9.45;;;7.35;;
48789;SDS011;41718;51.980;5.734;2023-11-19T00:06:38;13.00;;;7.45;;
48789;SDS011;41718;51.980;5.734;2023-11-19T00:11:40;9.07;;;6.55;;
48789;SDS011;41718;51.980;5.734;2023-11-19T00:16:41;9.32;;;5.18;;
48789;SDS011;41718;51.980;5.734;2023-11-19T00:21:43;7.80;;;5.95;;
48789;SDS011;41718;51.980;5.734;2023-11-19T00:26:44;8.32;;;4.93;;
48789;SDS011;41718;51.980;5.734;2023-11-19T00:31:46;6.13;;;2.63;;
48789;SDS011;41718;51.980;5.734;2023-11-19T00:36:48;6.72;;;3.63;;
48789;SDS011;41718;51.980;5.734;2023-11-19T00:41:50;9.82;;;2.97;;
48789;SDS011;41718;51.980;5.734;2023-11-19T00:46:51;4.22;;;3.08;;
48789;SDS011;41718;51.980;5.734;2023-11-19T00:51:53;6.65;;;3.22;;
48789;SDS011;41718;51.980;5.734;2023-11-19T00:56:54;4.10;;;2.58;;
48789;SDS011;41718;51.980;5.734;2023-11-19T01:01:56;13.60;;;4.47;;
48789;SDS011;41718;51.980;5.734;2023-11-19T01:06:58;12.70;;;4.68;;
48789;SDS011;41718;51.980;5.734;2023-11-19T01:11:59;9.00;;;3.08;;
48789;SDS011;41718;51.980;5.734;2023-11-19T01:17:01;6.95;;;3.22;;
48789;SDS011;41718;51.980;5.734;2023-11-19T01:22:03;5.78;;;2.05;;
48789;SDS011;41718;51.980;5.734;2023-11-19T01:27:05;12.98;;;3.63;;
48789;SDS011;41718;51.980;5.734;2023-11-19T01:32:07;13.55;;;4.75;;
48789;SDS011;41718;51.980;5.734;2023-11-19T01:37:08;10.15;;;3.08;;
48789;SDS011;41718;51.980;5.734;2023-11-19T01:42:15;9.43;;;3.33;;
48789;SDS011;41718;51.980;5.734;2023-11-19T01:47:16;12.80;;;2.90;;
48789;SDS011;41718;51.980;5.734;2023-11-19T01:52:19;17.75;;;3.83;;
48789;SDS011;41718;51.980;5.734;2023-11-19T01:57:22;11.45;;;5.07;;
48789;SDS011;41718;51.980;5.734;2023-11-19T02:02:24;12.90;;;4.10;;
48789;SDS011;41718;51.980;5.734;2023-11-19T02:07:27;18.48;;;4.30;;
48789;SDS011;41718;51.980;5.734;2023-11-19T02:12:29;9.32;;;2.42;;
48789;SDS011;41718;51.980;5.734;2023-11-19T02:17:30;10.63;;;4.05;;
48789;SDS011;41718;51.980;5.734;2023-11-19T02:22:33;10.55;;;2.35;;
48789;SDS011;41718;51.980;5.734;2023-11-19T02:32:59;12.35;;;2.42;;
48789;SDS011;41718;51.980;5.734;2023-11-19T02:38:04;12.63;;;4.40;;
48789;SDS011;41718;51.980;5.734;2023-11-19T02:43:08;11.98;;;4.18;;
48789;SDS011;41718;51.980;5.734;2023-11-19T02:48:10;10.45;;;2.85;;
48789;SDS011;41718;51.980;5.734;2023-11-19T02:53:11;13.60;;;4.05;;
48789;SDS011;41718;51.980;5.734;2023-11-19T02:58:14;15.73;;;4.05;;
48789;SDS011;41718;51.980;5.734;2023-11-19T03:03:21;5.07;;;2.97;;
48789;SDS011;41718;51.980;5.734;2023-11-19T03:08:24;20.90;;;4.63;;
48789;SDS011;41718;51.980;5.734;2023-11-19T03:13:25;20.30;;;5.15;;
48789;SDS011;41718;51.980;5.734;2023-11-19T03:18:28;31.60;;;7.70;;
48789;SDS011;41718;51.980;5.734;2023-11-19T03:23:29;30.48;;;7.78;;
48789;SDS011;41718;51.980;5.734;2023-11-19T03:28:32;26.48;;;10.57;;
48789;SDS011;41718;51.980;5.734;2023-11-19T03:33:34;30.40;;;11.77;;
48789;SDS011;41718;51.980;5.734;2023-11-19T03:38:36;33.92;;;12.85;;
48789;SDS011;41718;51.980;5.734;2023-11-19T03:43:38;30.02;;;10.43;;
48789;SDS011;41718;51.980;5.734;2023-11-19T03:48:40;31.25;;;10.30;;
48789;SDS011;41718;51.980;5.734;2023-11-19T03:53:42;24.45;;;7.82;;
48789;SDS011;41718;51.980;5.734;2023-11-19T03:58:44;29.45;;;7.68;;
48789;SDS011;41718;51.980;5.734;2023-11-19T04:03:46;24.25;;;7.05;;
48789;SDS011;41718;51.980;5.734;2023-11-19T04:08:51;28.08;;;10.65;;
48789;SDS011;41718;51.980;5.734;2023-11-19T04:13:53;24.25;;;9.02;;
48789;SDS011;41718;51.980;5.734;2023-11-19T04:18:54;19.00;;;6.38;;
48789;SDS011;41718;51.980;5.734;2023-11-19T04:23:56;18.52;;;6.43;;
48789;SDS011;41718;51.980;5.734;2023-11-19T04:28:58;19.45;;;4.60;;
48789;SDS011;41718;51.980;5.734;2023-11-19T04:33:59;13.48;;;3.38;;
48789;SDS011;41718;51.980;5.734;2023-11-19T04:39:01;25.45;;;6.13;;
48789;SDS011;41718;51.980;5.734;2023-11-19T04:44:03;26.70;;;5.65;;
48789;SDS011;41718;51.980;5.734;2023-11-19T04:49:05;33.85;;;5.53;;
48789;SDS011;41718;51.980;5.734;2023-11-19T04:54:07;19.58;;;6.90;;
48789;SDS011;41718;51.980;5.734;2023-11-19T04:59:09;15.95;;;4.07;;
48789;SDS011;41718;51.980;5.734;2023-11-19T05:04:11;18.80;;;4.40;;
48789;SDS011;41718;51.980;5.734;2023-11-19T05:09:12;12.95;;;4.50;;
48789;SDS011;41718;51.980;5.734;2023-11-19T05:14:14;23.17;;;7.40;;
48789;SDS011;41718;51.980;5.734;2023-11-19T05:19:16;17.63;;;4.22;;
48789;SDS011;41718;51.980;5.734;2023-11-19T05:24:18;25.70;;;4.93;;
48789;SDS011;41718;51.980;5.734;2023-11-19T05:29:20;24.30;;;5.75;;
48789;SDS011;41718;51.980;5.734;2023-11-19T05:34:22;26.45;;;5.88;;
48789;SDS011;41718;51.980;5.734;2023-11-19T05:39:23;14.45;;;5.90;;
48789;SDS011;41718;51.980;5.734;2023-11-19T05:44:26;16.25;;;4.28;;
48789;SDS011;41718;51.980;5.734;2023-11-19T05:49:28;27.88;;;6.03;;
48789;SDS011;41718;51.980;5.734;2023-11-19T05:54:29;21.73;;;5.53;;
48789;SDS011;41718;51.980;5.734;2023-11-19T05:59:32;19.05;;;4.68;;
48789;SDS011;41718;51.980;5.734;2023-11-19T06:04:35;12.48;;;6.07;;
48789;SDS011;41718;51.980;5.734;2023-11-19T06:09:37;25.17;;;5.03;;
48789;SDS011;41718;51.980;5.734;2023-11-19T06:14:39;14.38;;;4.30;;
48789;SDS011;41718;51.980;5.734;2023-11-19T06:19:41;26.20;;;8.10;;
48789;SDS011;41718;51.980;5.734;2023-11-19T06:24:43;20.00;;;6.40;;
48789;SDS011;41718;51.980;5.734;2023-11-19T06:29:44;20.27;;;5.32;;
48789;SDS011;41718;51.980;5.734;2023-11-19T06:34:46;29.63;;;7.00;;
48789;SDS011;41718;51.980;5.734;2023-11-19T06:39:47;16.33;;;4.43;;
48789;SDS011;41718;51.980;5.734;2023-11-19T06:44:49;24.60;;;5.50;;
48789;SDS011;41718;51.980;5.734;2023-11-19T06:49:50;22.98;;;4.97;;
48789;SDS011;41718;51.980;5.734;2023-11-19T06:54:52;29.40;;;6.53;;
48789;SDS011;41718;51.980;5.734;2023-11-19T06:59:53;24.20;;;5.07;;
48789;SDS011;41718;51.980;5.734;2023-11-19T07:04:55;25.98;;;7.18;;
48789;SDS011;41718;51.980;5.734;2023-11-19T07:09:57;18.33;;;2.65;;
48789;SDS011;41718;51.980;5.734;2023-11-19T07:14:58;24.83;;;5.55;;
48789;SDS011;41718;51.980;5.734;2023-11-19T07:20:00;17.95;;;3.25;;
48789;SDS011;41718;51.980;5.734;2023-11-19T07:25:01;21.50;;;6.32;;
48789;SDS011;41718;51.980;5.734;2023-11-19T07:30:03;28.58;;;5.13;;
48789;SDS011;41718;51.980;5.734;2023-11-19T07:35:06;20.45;;;4.75;;
48789;SDS011;41718;51.980;5.734;2023-11-19T07:40:08;24.95;;;5.70;;
48789;SDS011;41718;51.980;5.734;2023-11-19T07:45:12;21.63;;;4.00;;
48789;SDS011;41718;51.980;5.734;2023-11-19T07:50:14;14.13;;;5.45;;
48789;SDS011;41718;51.980;5.734;2023-11-19T07:55:18;22.88;;;4.95;;
48789;SDS011;41718;51.980;5.734;2023-11-19T08:00:20;27.73;;;6.00;;
48789;SDS011;41718;51.980;5.734;2023-11-19T08:05:22;11.98;;;3.65;;
48789;SDS011;41718;51.980;5.734;2023-11-19T08:10:26;29.52;;;5.60;;
48789;SDS011;41718;51.980;5.734;2023-11-19T08:15:28;29.38;;;4.82;;
48789;SDS011;41718;51.980;5.734;2023-11-19T08:20:33;18.90;;;6.45;;
48789;SDS011;41718;51.980;5.734;2023-11-19T08:25:35;21.38;;;5.40;;
48789;SDS011;41718;51.980;5.734;2023-11-19T08:30:36;26.15;;;5.30;;
48789;SDS011;41718;51.980;5.734;2023-11-19T08:35:38;17.23;;;2.13;;
48789;SDS011;41718;51.980;5.734;2023-11-19T08:40:40;18.92;;;6.28;;
48789;SDS011;41718;51.980;5.734;2023-11-19T08:45:41;18.42;;;4.03;;
48789;SDS011;41718;51.980;5.734;2023-11-19T08:50:43;8.25;;;3.05;;
48789;SDS011;41718;51.980;5.734;2023-11-19T08:55:44;30.38;;;4.78;;
48789;SDS011;41718;51.980;5.734;2023-11-19T09:00:46;21.10;;;3.55;;
48789;SDS011;41718;51.980;5.734;2023-11-19T09:05:48;20.23;;;4.75;;
48789;SDS011;41718;51.980;5.734;2023-11-19T09:10:49;22.80;;;5.53;;
48789;SDS011;41718;51.980;5.734;2023-11-19T09:15:51;18.23;;;5.00;;
48789;SDS011;41718;51.980;5.734;2023-11-19T09:20:53;23.23;;;6.85;;
48789;SDS011;41718;51.980;5.734;2023-11-19T09:25:55;25.92;;;6.60;;
48789;SDS011;41718;51.980;5.734;2023-11-19T09:30:57;15.80;;;4.82;;
48789;SDS011;41718;51.980;5.734;2023-11-19T09:36:00;11.45;;;4.57;;
48789;SDS011;41718;51.980;5.734;2023-11-19T09:41:01;18.75;;;4.03;;
48789;SDS011;41718;51.980;5.734;2023-11-19T09:46:09;25.15;;;5.10;;
48789;SDS011;41718;51.980;5.734;2023-11-19T09:51:15;16.20;;;4.37;;
48789;SDS011;41718;51.980;5.734;2023-11-19T09:56:16;14.82;;;3.95;;
48789;SDS011;41718;51.980;5.734;2023-11-19T10:01:19;7.70;;;2.40;;
48789;SDS011;41718;51.980;5.734;2023-11-19T10:06:29;24.63;;;5.82;;
48789;SDS011;41718;51.980;5.734;2023-11-19T10:11:30;19.85;;;4.10;;
48789;SDS011;41718;51.980;5.734;2023-11-19T10:16:34;21.98;;;4.47;;
48789;SDS011;41718;51.980;5.734;2023-11-19T10:21:36;20.00;;;4.22;;
48789;SDS011;41718;51.980;5.734;2023-11-19T10:26:37;12.70;;;3.25;;
48789;SDS011;41718;51.980;5.734;2023-11-19T10:31:39;21.10;;;4.53;;
48789;SDS011;41718;51.980;5.734;2023-11-19T10:36:40;13.27;;;4.28;;
48789;SDS011;41718;51.980;5.734;2023-11-19T10:41:42;21.90;;;6.07;;
48789;SDS011;41718;51.980;5.734;2023-11-19T10:46:44;15.02;;;4.35;;
48789;SDS011;41718;51.980;5.734;2023-11-19T10:51:45;15.10;;;4.90;;
48789;SDS011;41718;51.980;5.734;2023-11-19T10:56:54;23.92;;;5.50;;
48789;SDS011;41718;51.980;5.734;2023-11-19T11:02:00;25.65;;;5.45;;
48789;SDS011;41718;51.980;5.734;2023-11-19T11:07:09;11.88;;;4.68;;
48789;SDS011;41718;51.980;5.734;2023-11-19T11:12:11;8.63;;;3.28;;
48789;SDS011;41718;51.980;5.734;2023-11-19T11:17:14;15.75;;;3.47;;
48789;SDS011;41718;51.980;5.734;2023-11-19T11:22:19;20.55;;;5.40;;
48789;SDS011;41718;51.980;5.734;2023-11-19T11:27:42;22.52;;;4.95;;
48789;SDS011;41718;51.980;5.734;2023-11-19T11:38:35;18.77;;;6.22;;
48789;SDS011;41718;51.980;5.734;2023-11-19T11:43:48;15.23;;;3.75;;
48789;SDS011;41718;51.980;5.734;2023-11-19T11:48:51;19.33;;;4.38;;
48789;SDS011;41718;51.980;5.734;2023-11-19T11:53:53;19.27;;;5.22;;
48789;SDS011;41718;51.980;5.734;2023-11-19T11:58:55;15.57;;;4.15;;
48789;SDS011;41718;51.980;5.734;2023-11-19T12:03:57;16.10;;;3.03;;
48789;SDS011;41718;51.980;5.734;2023-11-19T12:08:59;13.20;;;3.13;;
48789;SDS011;41718;51.980;5.734;2023-11-19T12:14:01;6.40;;;2.40;;
48789;SDS011;41718;51.980;5.734;2023-11-19T12:19:04;7.40;;;1.73;;
48789;SDS011;41718;51.980;5.734;2023-11-19T12:24:07;8.98;;;2.78;;
48789;SDS011;41718;51.980;5.734;2023-11-19T12:29:10;7.40;;;2.53;;
48789;SDS011;41718;51.980;5.734;2023-11-19T12:34:12;12.00;;;3.42;;
48789;SDS011;41718;51.980;5.734;2023-11-19T12:39:14;12.02;;;2.30;;
48789;SDS011;41718;51.980;5.734;2023-11-19T12:44:16;9.73;;;2.95;;
48789;SDS011;41718;51.980;5.734;2023-11-19T12:49:19;6.68;;;2.60;;
48789;SDS011;41718;51.980;5.734;2023-11-19T12:54:33;2.15;;;1.00;;
48789;SDS011;41718;51.980;5.734;2023-11-19T12:59:40;14.00;;;2.60;;
48789;SDS011;41718;51.980;5.734;2023-11-19T13:04:43;16.42;;;3.50;;
48789;SDS011;41718;51.980;5.734;2023-11-19T13:09:44;9.27;;;3.78;;
48789;SDS011;41718;51.980;5.734;2023-11-19T13:14:50;13.40;;;3.70;;
48789;SDS011;41718;51.980;5.734;2023-11-19T13:19:52;17.27;;;3.87;;
48789;SDS011;41718;51.980;5.734;2023-11-19T13:24:55;16.42;;;3.13;;
48789;SDS011;41718;51.980;5.734;2023-11-19T13:29:57;18.63;;;4.68;;
48789;SDS011;41718;51.980;5.734;2023-11-19T13:35:00;20.33;;;4.20;;
48789;SDS011;41718;51.980;5.734;2023-11-19T13:40:04;12.90;;;4.20;;
48789;SDS011;41718;51.980;5.734;2023-11-19T13:45:09;16.83;;;2.65;;
48789;SDS011;41718;51.980;5.734;2023-11-19T13:50:16;15.40;;;4.13;;
48789;SDS011;41718;51.980;5.734;2023-11-19T13:55:23;18.63;;;4.93;;
48789;SDS011;41718;51.980;5.734;2023-11-19T14:00:42;12.73;;;2.80;;
48789;SDS011;41718;51.980;5.734;2023-11-19T14:05:47;19.38;;;3.50;;
48789;SDS011;41718;51.980;5.734;2023-11-19T14:10:50;19.65;;;3.65;;
48789;SDS011;41718;51.980;5.734;2023-11-19T14:15:52;11.43;;;2.55;;
48789;SDS011;41718;51.980;5.734;2023-11-19T14:20:58;24.25;;;4.35;;
48789;SDS011;41718;51.980;5.734;2023-11-19T14:26:01;14.43;;;6.68;;
48789;SDS011;41718;51.980;5.734;2023-11-19T14:31:03;19.13;;;4.10;;
48789;SDS011;41718;51.980;5.734;2023-11-19T14:36:06;9.98;;;2.83;;
48789;SDS011;41718;51.980;5.734;2023-11-19T14:41:09;15.05;;;3.67;;
48789;SDS011;41718;51.980;5.734;2023-11-19T14:46:10;9.95;;;3.50;;
48789;SDS011;41718;51.980;5.734;2023-11-19T14:51:12;17.27;;;3.15;;
48789;SDS011;41718;51.980;5.734;2023-11-19T14:56:18;14.57;;;4.57;;
48789;SDS011;41718;51.980;5.734;2023-11-19T15:01:19;19.10;;;4.15;;
48789;SDS011;41718;51.980;5.734;2023-11-19T15:06:25;22.17;;;5.38;;
48789;SDS011;41718;51.980;5.734;2023-11-19T15:11:29;17.45;;;3.45;;
48789;SDS011;41718;51.980;5.734;2023-11-19T15:16:31;15.98;;;3.72;;
48789;SDS011;41718;51.980;5.734;2023-11-19T15:21:34;8.05;;;1.70;;
48789;SDS011;41718;51.980;5.734;2023-11-19T15:26:36;22.48;;;4.90;;
48789;SDS011;41718;51.980;5.734;2023-11-19T15:31:43;10.65;;;3.92;;
48789;SDS011;41718;51.980;5.734;2023-11-19T15:36:45;17.83;;;4.20;;
48789;SDS011;41718;51.980;5.734;2023-11-19T15:41:48;12.13;;;3.65;;
48789;SDS011;41718;51.980;5.734;2023-11-19T15:46:49;14.90;;;3.67;;
48789;SDS011;41718;51.980;5.734;2023-11-19T15:51:51;16.40;;;5.57;;
48789;SDS011;41718;51.980;5.734;2023-11-19T15:57:00;13.65;;;3.70;;
48789;SDS011;41718;51.980;5.734;2023-11-19T16:02:09;17.52;;;5.03;;
48789;SDS011;41718;51.980;5.734;2023-11-19T16:07:25;8.53;;;2.87;;
48789;SDS011;41718;51.980;5.734;2023-11-19T16:12:30;13.75;;;3.70;;
48789;SDS011;41718;51.980;5.734;2023-11-19T16:17:32;11.68;;;3.60;;
48789;SDS011;41718;51.980;5.734;2023-11-19T16:22:39;13.88;;;3.58;;
48789;SDS011;41718;51.980;5.734;2023-11-19T16:27:41;15.60;;;4.10;;
48789;SDS011;41718;51.980;5.734;2023-11-19T16:37:57;12.70;;;2.58;;
48789;SDS011;41718;51.980;5.734;2023-11-19T16:43:04;12.35;;;3.60;;
48789;SDS011;41718;51.980;5.734;2023-11-19T16:48:10;12.80;;;3.63;;
48789;SDS011;41718;51.980;5.734;2023-11-19T16:53:16;10.63;;;2.38;;
48789;SDS011;41718;51.980;5.734;2023-11-19T16:58:19;11.48;;;3.05;;
48789;SDS011;41718;51.980;5.734;2023-11-19T17:03:25;14.23;;;4.97;;
48789;SDS011;41718;51.980;5.734;2023-11-19T17:08:27;13.40;;;3.15;;
48789;SDS011;41718;51.980;5.734;2023-11-19T17:13:29;8.73;;;2.83;;
48789;SDS011;41718;51.980;5.734;2023-11-19T17:18:33;9.77;;;2.95;;
48789;SDS011;41718;51.980;5.734;2023-11-19T17:23:35;8.43;;;3.45;;
48789;SDS011;41718;51.980;5.734;2023-11-19T17:28:37;12.75;;;3.33;;
48789;SDS011;41718;51.980;5.734;2023-11-19T17:33:42;12.10;;;3.38;;
48789;SDS011;41718;51.980;5.734;2023-11-19T17:38:52;14.57;;;4.80;;
48789;SDS011;41718;51.980;5.734;2023-11-19T17:43:54;12.07;;;2.50;;
48789;SDS011;41718;51.980;5.734;2023-11-19T17:48:57;8.93;;;2.58;;
48789;SDS011;41718;51.980;5.734;2023-11-19T17:53:58;11.73;;;3.00;;
48789;SDS011;41718;51.980;5.734;2023-11-19T17:59:02;13.65;;;3.95;;
48789;SDS011;41718;51.980;5.734;2023-11-19T18:04:07;8.70;;;2.60;;
48789;SDS011;41718;51.980;5.734;2023-11-19T18:09:09;8.40;;;3.28;;
48789;SDS011;41718;51.980;5.734;2023-11-19T18:14:16;6.20;;;3.03;;
48789;SDS011;41718;51.980;5.734;2023-11-19T18:19:18;12.23;;;3.10;;
48789;SDS011;41718;51.980;5.734;2023-11-19T18:24:23;7.13;;;2.10;;
48789;SDS011;41718;51.980;5.734;2023-11-19T18:29:25;9.02;;;5.20;;
48789;SDS011;41718;51.980;5.734;2023-11-19T18:34:37;8.10;;;2.97;;
48789;SDS011;41718;51.980;5.734;2023-11-19T18:39:45;8.20;;;2.97;;
48789;SDS011;41718;51.980;5.734;2023-11-19T18:44:47;4.05;;;2.60;;
48789;SDS011;41718;51.980;5.734;2023-11-19T18:49:52;10.20;;;3.60;;
48789;SDS011;41718;51.980;5.734;2023-11-19T18:55:01;10.90;;;3.43;;
48789;SDS011;41718;51.980;5.734;2023-11-19T19:00:10;11.50;;;3.65;;
48789;SDS011;41718;51.980;5.734;2023-11-19T19:05:18;8.02;;;3.63;;
48789;SDS011;41718;51.980;5.734;2023-11-19T19:10:24;4.53;;;2.67;;
48789;SDS011;41718;51.980;5.734;2023-11-19T19:21:11;9.43;;;4.15;;
48789;SDS011;41718;51.980;5.734;2023-11-19T19:26:40;9.55;;;2.88;;
48789;SDS011;41718;51.980;5.734;2023-11-19T19:32:03;6.57;;;3.03;;
48789;SDS011;41718;51.980;5.734;2023-11-19T19:37:14;7.38;;;3.58;;
48789;SDS011;41718;51.980;5.734;2023-11-19T19:42:23;8.13;;;3.63;;
48789;SDS011;41718;51.980;5.734;2023-11-19T19:47:31;6.07;;;2.25;;
48789;SDS011;41718;51.980;5.734;2023-11-19T19:52:36;9.25;;;2.83;;
48789;SDS011;41718;51.980;5.734;2023-11-19T19:57:47;8.18;;;2.65;;
48789;SDS011;41718;51.980;5.734;2023-11-19T20:02:53;8.68;;;3.40;;
48789;SDS011;41718;51.980;5.734;2023-11-19T20:08:00;7.28;;;2.50;;
48789;SDS011;41718;51.980;5.734;2023-11-19T20:13:04;3.58;;;1.88;;
48789;SDS011;41718;51.980;5.734;2023-11-19T20:18:31;4.37;;;2.73;;
48789;SDS011;41718;51.980;5.734;2023-11-19T20:23:34;6.53;;;3.13;;
48789;SDS011;41718;51.980;5.734;2023-11-19T20:28:39;2.35;;;2.00;;
48789;SDS011;41718;51.980;5.734;2023-11-19T20:33:44;7.20;;;2.97;;
48789;SDS011;41718;51.980;5.734;2023-11-19T20:39:16;4.30;;;2.95;;
48789;SDS011;41718;51.980;5.734;2023-11-19T20:44:20;8.55;;;4.30;;
48789;SDS011;41718;51.980;5.734;2023-11-19T20:49:24;6.53;;;3.13;;
48789;SDS011;41718;51.980;5.734;2023-11-19T20:54:31;5.32;;;3.92;;
48789;SDS011;41718;51.980;5.734;2023-11-19T20:59:44;6.15;;;2.45;;
48789;SDS011;41718;51.980;5.734;2023-11-19T21:04:47;7.18;;;1.77;;
48789;SDS011;41718;51.980;5.734;2023-11-19T21:09:50;5.10;;;2.47;;
48789;SDS011;41718;51.980;5.734;2023-11-19T21:14:56;11.68;;;2.90;;
48789;SDS011;41718;51.980;5.734;2023-11-19T21:19:59;6.90;;;2.67;;
48789;SDS011;41718;51.980;5.734;2023-11-19T21:25:05;8.98;;;2.63;;
48789;SDS011;41718;51.980;5.734;2023-11-19T21:30:21;6.07;;;2.57;;
48789;SDS011;41718;51.980;5.734;2023-11-19T21:35:25;11.27;;;2.15;;
48789;SDS011;41718;51.980;5.734;2023-11-19T21:40:31;6.60;;;2.20;;
48789;SDS011;41718;51.980;5.734;2023-11-19T21:45:34;3.30;;;1.67;;
48789;SDS011;41718;51.980;5.734;2023-11-19T21:50:44;5.10;;;2.70;;
48789;SDS011;41718;51.980;5.734;2023-11-19T21:55:47;8.27;;;2.42;;
48789;SDS011;41718;51.980;5.734;2023-11-19T22:01:11;8.75;;;2.30;;
48789;SDS011;41718;51.980;5.734;2023-11-19T22:06:18;9.98;;;2.80;;
48789;SDS011;41718;51.980;5.734;2023-11-19T22:11:20;7.80;;;2.63;;
48789;SDS011;41718;51.980;5.734;2023-11-19T22:16:25;9.18;;;3.55;;
48789;SDS011;41718;51.980;5.734;2023-11-19T22:21:30;12.55;;;2.67;;
48789;SDS011;41718;51.980;5.734;2023-11-19T22:26:34;10.55;;;3.85;;
48789;SDS011;41718;51.980;5.734;2023-11-19T22:31:40;13.25;;;4.88;;
48789;SDS011;41718;51.980;5.734;2023-11-19T22:41:53;11.68;;;2.92;;
48789;SDS011;41718;51.980;5.734;2023-11-19T22:46:57;7.93;;;4.35;;
48789;SDS011;41718;51.980;5.734;2023-11-19T22:52:04;11.07;;;2.20;;
48789;SDS011;41718;51.980;5.734;2023-11-19T22:57:06;9.30;;;2.43;;
48789;SDS011;41718;51.980;5.734;2023-11-19T23:02:08;10.63;;;2.97;;
48789;SDS011;41718;51.980;5.734;2023-11-19T23:07:13;12.30;;;4.28;;
48789;SDS011;41718;51.980;5.734;2023-11-19T23:12:23;11.90;;;1.77;;
48789;SDS011;41718;51.980;5.734;2023-11-19T23:17:28;10.73;;;3.30;;
48789;SDS011;41718;51.980;5.734;2023-11-19T23:22:42;14.50;;;4.13;;
48789;SDS011;41718;51.980;5.734;2023-11-19T23:27:46;18.30;;;4.30;;
48789;SDS011;41718;51.980;5.734;2023-11-19T23:33:01;14.10;;;4.22;;
48789;SDS011;41718;51.980;5.734;2023-11-19T23:38:32;10.57;;;2.60;;
48789;SDS011;41718;51.980;5.734;2023-11-19T23:43:47;14.27;;;3.92;;
48789;SDS011;41718;51.980;5.734;2023-11-19T23:48:50;16.48;;;3.30;;
48789;SDS011;41718;51.980;5.734;2023-11-19T23:54:01;14.80;;;2.97;;
48789;SDS011;41718;51.980;5.734;2023-11-19T23:59:06;10.80;;;4.18;;
